createdAt,value
2018-03-24T00:01:57.830Z,28.53
2018-03-24T00:04:24.720Z,31.87
2018-03-24T00:06:50.945Z,28.07
2018-03-24T00:09:17.095Z,30.80
2018-03-24T00:11:43.278Z,28.03
2018-03-24T00:14:09.438Z,29.43
2018-03-24T00:16:36.331Z,30.93
2018-03-24T00:19:02.511Z,30.67
2018-03-24T00:21:28.690Z,30.97
2018-03-24T00:23:55.367Z,26.30
2018-03-24T00:26:21.509Z,29.70
2018-03-24T00:28:47.672Z,25.63
2018-03-24T00:31:13.843Z,31.23
2018-03-24T00:33:40.774Z,27.63
2018-03-24T00:36:06.948Z,28.93
2018-03-24T00:38:33.837Z,25.43
2018-03-24T00:41:00.003Z,26.37
2018-03-24T00:43:26.165Z,26.80
2018-03-24T00:45:52.339Z,26.57
2018-03-24T00:48:18.502Z,24.37
2018-03-24T00:50:44.712Z,27.10
2018-03-24T00:53:10.852Z,24.67
2018-03-24T00:55:36.999Z,26.47
2018-03-24T00:58:03.167Z,24.30
2018-03-24T01:00:30.104Z,25.93
2018-03-24T01:02:56.269Z,22.87
2018-03-24T01:05:23.173Z,24.23
2018-03-24T01:07:49.438Z,21.50
2018-03-24T01:10:15.688Z,27.87
2018-03-24T01:12:41.855Z,25.37
2018-03-24T01:15:07.989Z,27.83
2018-03-24T01:17:34.200Z,23.87
2018-03-24T01:20:00.345Z,22.20
2018-03-24T01:22:26.533Z,25.60
2018-03-24T01:24:52.749Z,25.90
2018-03-24T01:27:18.921Z,26.50
2018-03-24T01:29:45.851Z,27.57
2018-03-24T01:32:11.999Z,25.57
2018-03-24T01:34:38.162Z,23.10
2018-03-24T01:37:05.058Z,24.43
2018-03-24T01:39:31.228Z,23.20
2018-03-24T01:41:57.405Z,24.23
2018-03-24T01:44:23.564Z,24.97
2018-03-24T01:46:49.755Z,25.10
2018-03-24T01:49:15.962Z,28.97
2018-03-24T01:51:42.140Z,23.33
2018-03-24T01:54:08.291Z,27.70
2018-03-24T01:56:35.197Z,22.43
2018-03-24T01:59:02.270Z,23.10
2018-03-24T02:01:28.412Z,23.73
2018-03-24T02:03:54.595Z,21.90
2018-03-24T02:06:21.473Z,21.80
2018-03-24T02:08:47.650Z,22.07
2018-03-24T02:11:13.822Z,26.73
2018-03-24T02:13:40.743Z,23.03
2018-03-24T02:16:06.886Z,22.43
2018-03-24T02:18:33.044Z,24.30
2018-03-24T02:21:00.218Z,22.13
2018-03-24T02:23:27.175Z,23.73
2018-03-24T02:25:54.078Z,21.93
2018-03-24T02:28:20.243Z,24.50
2018-03-24T02:30:46.461Z,24.30
2018-03-24T02:33:12.612Z,27.17
2018-03-24T02:35:38.786Z,23.33
2018-03-24T02:38:05.675Z,21.70
2018-03-24T02:40:31.867Z,24.87
2018-03-24T02:42:58.040Z,23.60
2018-03-24T02:45:24.946Z,23.77
2018-03-24T02:47:51.822Z,23.97
2018-03-24T02:50:18.014Z,22.07
2018-03-24T02:52:44.226Z,23.17
2018-03-24T02:55:10.428Z,21.77
2018-03-24T02:57:36.576Z,23.13
2018-03-24T03:00:02.815Z,26.17
2018-03-24T03:02:28.969Z,23.43
2018-03-24T03:04:55.142Z,23.80
2018-03-24T03:07:21.329Z,24.97
2018-03-24T03:09:47.608Z,24.40
2018-03-24T03:12:14.501Z,29.23
2018-03-24T03:14:40.709Z,24.73
2018-03-24T03:17:07.700Z,26.37
2018-03-24T03:19:34.553Z,25.57
2018-03-24T03:22:00.772Z,26.10
2018-03-24T03:24:26.968Z,23.63
2018-03-24T03:26:53.147Z,25.53
2018-03-24T03:29:20.086Z,22.67
2018-03-24T03:32:05.898Z,24.40
2018-03-24T03:34:32.120Z,24.13
2018-03-24T03:36:58.261Z,25.37
2018-03-24T03:39:24.448Z,24.47
2018-03-24T03:41:50.611Z,24.77
2018-03-24T03:44:16.856Z,23.27
2018-03-24T03:46:43.068Z,24.80
2018-03-24T03:49:09.249Z,25.83
2018-03-24T03:51:35.396Z,25.10
2018-03-24T03:54:01.563Z,26.30
2018-03-24T03:56:28.453Z,24.70
2018-03-24T03:58:54.642Z,28.77
2018-03-24T04:01:20.788Z,24.27
2018-03-24T04:03:47.891Z,26.23
2018-03-24T04:06:14.073Z,25.10
2018-03-24T04:08:40.249Z,26.73
2018-03-24T04:11:06.393Z,26.40
2018-03-24T04:13:32.529Z,26.80
2018-03-24T04:15:58.694Z,27.87
2018-03-24T04:18:24.826Z,28.43
2018-03-24T04:20:50.953Z,28.60
2018-03-24T04:23:17.166Z,25.77
2018-03-24T04:25:44.077Z,25.57
2018-03-24T04:28:10.257Z,30.57
2018-03-24T04:30:38.171Z,29.87
2018-03-24T04:33:04.370Z,30.07
2018-03-24T04:35:31.477Z,25.60
2018-03-24T04:37:57.665Z,29.70
2018-03-24T04:40:23.842Z,29.77
2018-03-24T04:42:50.015Z,29.50
2018-03-24T04:45:16.180Z,30.43
2018-03-24T04:47:42.364Z,42.17
2018-03-24T04:50:08.512Z,33.27
2018-03-24T04:52:34.661Z,38.20
2018-03-24T04:55:00.889Z,37.87
2018-03-24T04:57:27.098Z,47.47
2018-03-24T04:59:54.052Z,41.77
2018-03-24T05:02:20.977Z,38.47
2018-03-24T05:04:47.149Z,35.00
2018-03-24T05:07:14.077Z,32.37
2018-03-24T05:09:40.285Z,31.43
2018-03-24T05:12:06.443Z,30.77
2018-03-24T05:14:32.645Z,28.40
2018-03-24T05:16:58.846Z,32.33
2018-03-24T05:19:24.995Z,28.20
2018-03-24T05:21:51.160Z,34.67
2018-03-24T05:24:18.247Z,32.47
2018-03-24T05:26:44.408Z,32.10
2018-03-24T05:29:10.606Z,33.87
2018-03-24T05:31:36.781Z,29.97
2018-03-24T05:34:02.967Z,36.43
2018-03-24T05:36:30.030Z,40.47
2018-03-24T05:38:56.935Z,40.43
2018-03-24T05:41:23.088Z,33.23
2018-03-24T05:43:49.626Z,42.57
2018-03-24T05:46:15.810Z,30.67
2018-03-24T05:48:42.101Z,32.63
2018-03-24T05:51:08.182Z,30.70
2018-03-24T05:53:34.338Z,28.17
2018-03-24T05:56:01.224Z,30.17
2018-03-24T05:58:27.398Z,29.33
2018-03-24T06:00:54.345Z,30.33
2018-03-24T06:03:20.496Z,31.50
2018-03-24T06:05:46.708Z,28.13
2018-03-24T06:08:12.857Z,29.00
2018-03-24T06:10:40.283Z,27.13
2018-03-24T06:13:06.449Z,24.13
2018-03-24T06:15:32.662Z,24.40
2018-03-24T06:17:59.598Z,26.97
2018-03-24T06:20:25.769Z,26.20
2018-03-24T06:22:51.903Z,28.50
2018-03-24T06:25:18.136Z,27.47
2018-03-24T06:27:45.056Z,28.40
2018-03-24T06:30:14.141Z,29.53
2018-03-24T06:32:40.332Z,27.20
2018-03-24T06:35:07.276Z,26.13
2018-03-24T06:37:33.461Z,25.50
2018-03-24T06:39:59.672Z,26.07
2018-03-24T06:42:26.554Z,25.93
2018-03-24T06:44:52.749Z,22.90
2018-03-24T06:47:18.925Z,23.40
2018-03-24T06:49:45.875Z,22.90
2018-03-24T06:52:12.809Z,22.07
2018-03-24T06:54:39.022Z,22.63
2018-03-24T06:57:05.220Z,22.37
2018-03-24T06:59:31.421Z,20.83
2018-03-24T07:01:57.593Z,20.77
2018-03-24T07:04:23.791Z,20.47
2018-03-24T07:06:49.965Z,20.07
2018-03-24T07:09:16.927Z,18.03
2018-03-24T07:11:43.813Z,20.03
2018-03-24T07:14:10.132Z,19.30
2018-03-24T07:16:36.328Z,17.80
2018-03-24T07:19:02.506Z,17.10
2018-03-24T07:21:29.435Z,17.70
2018-03-24T07:23:55.678Z,17.00
2018-03-24T07:26:21.894Z,17.73
2018-03-24T07:28:48.113Z,17.00
2018-03-24T07:31:14.423Z,19.70
2018-03-24T07:33:41.405Z,21.03
2018-03-24T07:36:07.562Z,20.43
2018-03-24T07:38:33.790Z,21.63
2018-03-24T07:40:59.977Z,19.03
2018-03-24T07:43:26.472Z,21.50
2018-03-24T07:45:52.717Z,20.30
2018-03-24T07:48:18.911Z,21.20
2018-03-24T07:50:45.093Z,18.77
2018-03-24T07:53:11.315Z,19.50
2018-03-24T07:55:38.248Z,19.80
2018-03-24T07:58:04.408Z,19.13
2018-03-24T08:00:31.358Z,13.17
2018-03-24T08:02:58.271Z,11.77
2018-03-24T08:05:24.406Z,11.43
2018-03-24T08:07:50.614Z,11.93
2018-03-24T08:10:16.880Z,12.87
2018-03-24T08:12:43.022Z,11.43
2018-03-24T08:15:09.214Z,13.50
2018-03-24T08:17:36.190Z,10.63
2018-03-24T08:20:03.136Z,10.83
2018-03-24T08:22:30.052Z,11.77
2018-03-24T08:24:56.222Z,8.83
2018-03-24T08:27:23.294Z,10.33
2018-03-24T08:29:50.596Z,15.60
2018-03-24T08:32:16.983Z,12.90
2018-03-24T08:34:43.233Z,10.27
2018-03-24T08:37:10.238Z,10.20
2018-03-24T08:39:36.478Z,8.70
2018-03-24T08:42:02.634Z,7.17
2018-03-24T08:44:28.893Z,8.00
2018-03-24T08:46:55.845Z,9.10
2018-03-24T08:49:22.905Z,6.03
2018-03-24T08:51:49.052Z,5.83
2018-03-24T08:54:16.014Z,6.43
2018-03-24T08:56:42.218Z,4.93
2018-03-24T08:59:08.456Z,6.40
2018-03-24T09:01:34.624Z,5.13
2018-03-24T09:04:01.037Z,5.57
2018-03-24T09:06:27.229Z,7.53
2018-03-24T09:08:53.409Z,6.17
2018-03-24T09:11:19.689Z,7.20
2018-03-24T09:13:46.036Z,6.40
2018-03-24T09:16:12.251Z,5.90
2018-03-24T09:18:38.410Z,5.83
2018-03-24T09:21:04.596Z,6.23
2018-03-24T09:23:31.512Z,6.20
2018-03-24T09:25:57.656Z,6.53
2018-03-24T09:28:23.895Z,6.80
2018-03-24T09:30:52.103Z,6.50
2018-03-24T09:33:18.259Z,6.60
2018-03-24T09:35:45.212Z,8.87
2018-03-24T09:38:12.132Z,6.50
2018-03-24T09:40:38.305Z,7.80
2018-03-24T09:43:05.229Z,6.77
2018-03-24T09:45:31.390Z,6.03
2018-03-24T09:47:57.565Z,6.97
2018-03-24T09:50:24.468Z,6.07
2018-03-24T09:52:50.705Z,5.93
2018-03-24T09:55:16.946Z,7.20
2018-03-24T09:57:43.122Z,6.20
2018-03-24T10:00:10.118Z,5.67
2018-03-24T10:02:36.331Z,6.37
2018-03-24T10:05:02.564Z,6.47
2018-03-24T10:07:29.645Z,6.80
2018-03-24T10:09:55.823Z,6.70
2018-03-24T10:12:22.750Z,6.17
2018-03-24T10:14:48.933Z,6.80
2018-03-24T10:17:15.093Z,6.60
2018-03-24T10:19:42.032Z,6.47
2018-03-24T10:25:10.782Z,6.67
2018-03-24T10:27:37.712Z,6.20
2018-03-24T10:30:03.904Z,7.03
2018-03-24T10:32:33.925Z,5.97
2018-03-24T10:35:04.947Z,6.77
2018-03-24T10:37:31.121Z,7.23
2018-03-24T10:39:57.340Z,7.00
2018-03-24T10:42:23.517Z,6.67
2018-03-24T10:44:49.698Z,6.87
2018-03-24T10:47:15.973Z,7.10
2018-03-24T10:49:42.908Z,7.73
2018-03-24T10:52:09.098Z,7.03
2018-03-24T10:54:35.445Z,7.27
2018-03-24T10:57:01.737Z,7.90
2018-03-24T10:59:28.263Z,6.33
2018-03-24T11:01:54.754Z,7.13
2018-03-24T11:04:21.106Z,6.83
2018-03-24T11:06:47.962Z,7.30
2018-03-24T11:09:14.567Z,7.03
2018-03-24T11:11:41.101Z,6.07
2018-03-24T11:14:08.169Z,8.70
2018-03-24T11:16:34.619Z,9.23
2018-03-24T11:19:00.912Z,6.57
2018-03-24T11:21:27.274Z,7.50
2018-03-24T11:23:53.813Z,6.67
2018-03-24T11:26:20.299Z,8.20
2018-03-24T11:28:46.825Z,6.53
2018-03-24T11:31:13.231Z,6.70
2018-03-24T11:33:45.664Z,7.00
2018-03-24T11:36:12.764Z,7.67
2018-03-24T11:38:39.936Z,8.63
2018-03-24T11:41:06.393Z,7.90
2018-03-24T11:43:32.766Z,8.70
2018-03-24T11:45:59.164Z,8.10
2018-03-24T11:48:26.194Z,11.10
2018-03-24T11:50:52.558Z,9.80
2018-03-24T11:53:19.701Z,10.73
2018-03-24T11:55:48.906Z,11.53
2018-03-24T11:58:18.094Z,8.80
2018-03-24T12:00:45.989Z,7.30
2018-03-24T12:03:13.938Z,8.93
2018-03-24T12:05:40.284Z,9.60
2018-03-24T12:08:07.667Z,10.00
2018-03-24T12:10:34.032Z,8.90
2018-03-24T12:13:00.477Z,10.10
2018-03-24T12:15:26.794Z,10.13
2018-03-24T12:17:53.088Z,10.43
2018-03-24T12:20:19.403Z,12.20
2018-03-24T12:22:46.092Z,27.77
2018-03-24T12:25:12.430Z,37.13
2018-03-24T12:27:39.462Z,10.00
2018-03-24T12:30:05.799Z,10.47
2018-03-24T12:32:32.092Z,11.00
2018-03-24T12:34:59.157Z,12.30
2018-03-24T12:37:25.522Z,9.10
2018-03-24T12:39:52.109Z,9.50
2018-03-24T12:42:18.813Z,10.03
2018-03-24T12:44:46.914Z,9.73
2018-03-24T12:47:14.091Z,12.53
2018-03-24T12:49:40.493Z,9.93
2018-03-24T12:52:06.948Z,12.20
2018-03-24T12:54:33.334Z,10.73
2018-03-24T12:57:00.147Z,9.73
2018-03-24T12:59:26.607Z,10.80
2018-03-24T13:01:52.975Z,10.17
2018-03-24T13:04:19.922Z,13.50
2018-03-24T13:06:47.312Z,10.30
2018-03-24T13:09:13.742Z,10.07
2018-03-24T13:11:40.176Z,21.77
2018-03-24T13:14:06.862Z,12.20
2018-03-24T13:16:33.207Z,12.57
2018-03-24T13:18:59.520Z,10.70
2018-03-24T13:21:25.880Z,12.00
2018-03-24T13:23:52.180Z,12.73
2018-03-24T13:26:18.639Z,12.33
2018-03-24T13:28:45.735Z,16.87
2018-03-24T13:31:12.130Z,11.27
2018-03-24T13:33:38.386Z,13.27
2018-03-24T13:36:04.708Z,12.47
2018-03-24T13:38:31.061Z,13.77
2018-03-24T13:40:57.366Z,12.40
2018-03-24T13:43:23.633Z,11.40
2018-03-24T13:45:50.674Z,13.07
2018-03-24T13:48:17.492Z,12.30
2018-03-24T13:50:43.834Z,11.73
2018-03-24T13:53:10.233Z,11.53
2018-03-24T13:55:37.301Z,11.60
2018-03-24T13:58:03.598Z,11.83
2018-03-24T14:00:30.026Z,12.20
2018-03-24T14:02:56.286Z,12.20
2018-03-24T14:05:22.606Z,11.40
2018-03-24T14:07:48.986Z,11.07
2018-03-24T14:10:16.068Z,11.57
2018-03-24T14:12:43.118Z,14.73
2018-03-24T14:15:10.141Z,12.03
2018-03-24T14:17:36.385Z,12.23
2018-03-24T14:20:02.673Z,11.37
2018-03-24T14:22:29.747Z,14.30
2018-03-24T14:24:56.204Z,12.70
2018-03-24T14:27:22.475Z,10.90
2018-03-24T14:29:48.939Z,10.93
2018-03-24T14:32:15.322Z,13.53
2018-03-24T14:34:41.595Z,13.50
2018-03-24T14:37:07.899Z,14.57
2018-03-24T14:39:34.947Z,13.70
2018-03-24T14:42:01.248Z,11.77
2018-03-24T14:44:27.502Z,12.87
2018-03-24T14:46:53.785Z,12.37
2018-03-24T14:49:35.647Z,14.37
2018-03-24T14:52:01.982Z,14.50
2018-03-24T14:54:28.237Z,13.00
2018-03-24T14:56:54.553Z,11.87
2018-03-24T14:59:20.834Z,11.77
2018-03-24T15:01:47.584Z,13.37
2018-03-24T15:04:13.898Z,13.27
2018-03-24T15:06:40.212Z,12.10
2018-03-24T15:09:06.497Z,14.30
2018-03-24T15:11:32.890Z,13.90
2018-03-24T15:13:59.186Z,12.00
2018-03-24T15:16:25.458Z,13.17
2018-03-24T15:18:51.746Z,14.53
2018-03-24T15:21:18.012Z,13.30
2018-03-24T15:23:44.293Z,13.47
2018-03-24T15:26:10.615Z,15.93
2018-03-24T15:28:36.892Z,14.63
2018-03-24T15:31:14.328Z,13.00
2018-03-24T15:33:52.823Z,13.43
2018-03-24T15:36:31.353Z,13.07
2018-03-24T15:38:57.616Z,13.33
2018-03-24T15:41:23.904Z,13.43
2018-03-24T15:43:50.303Z,14.00
2018-03-24T15:46:16.734Z,13.70
2018-03-24T15:48:42.998Z,12.70
2018-03-24T15:51:09.313Z,12.53
2018-03-24T15:53:35.603Z,13.00
2018-03-24T15:56:02.686Z,12.70
2018-03-24T15:58:28.905Z,15.47
2018-03-24T16:00:55.224Z,13.90
2018-03-24T16:03:21.524Z,14.77
2018-03-24T16:05:48.561Z,14.40
2018-03-24T16:08:14.870Z,15.77
2018-03-24T16:10:41.126Z,15.80
2018-03-24T16:13:07.411Z,14.57
2018-03-24T16:15:34.475Z,15.50
2018-03-24T16:18:01.494Z,15.10
2018-03-24T16:20:47.014Z,16.07
2018-03-24T16:23:13.309Z,15.57
2018-03-24T16:25:39.579Z,16.27
2018-03-24T16:28:05.853Z,16.60
2018-03-24T16:30:32.108Z,19.67
2018-03-24T16:32:59.105Z,16.50
2018-03-24T16:35:25.481Z,18.40
2018-03-24T16:37:51.819Z,18.33
2018-03-24T16:40:18.351Z,21.60
2018-03-24T16:42:44.637Z,22.47
2018-03-24T16:45:11.698Z,22.47
2018-03-24T16:47:37.996Z,18.67
2018-03-24T16:50:04.352Z,18.47
2018-03-24T16:52:30.658Z,20.73
2018-03-24T16:54:57.627Z,20.60
2018-03-24T16:57:23.894Z,23.63
2018-03-24T16:59:50.246Z,25.47
2018-03-24T17:02:16.652Z,20.60
2018-03-24T17:04:42.916Z,20.97
2018-03-24T17:07:09.266Z,28.20
2018-03-24T17:09:35.572Z,22.73
2018-03-24T17:12:01.923Z,21.50
2018-03-24T17:14:28.196Z,25.70
2018-03-24T17:16:54.451Z,25.87
2018-03-24T17:19:20.770Z,24.30
2018-03-24T17:21:47.142Z,26.93
2018-03-24T17:24:14.182Z,26.43
2018-03-24T17:26:40.499Z,21.53
2018-03-24T17:29:06.801Z,25.20
2018-03-24T17:31:33.814Z,22.97
2018-03-24T17:34:04.214Z,26.10
2018-03-24T17:36:31.377Z,26.63
2018-03-24T17:38:57.671Z,27.43
2018-03-24T17:41:23.954Z,25.63
2018-03-24T17:43:51.016Z,26.03
2018-03-24T17:46:17.387Z,27.13
2018-03-24T17:48:43.716Z,25.27
2018-03-24T17:51:10.110Z,30.20
2018-03-24T17:53:36.504Z,25.60
2018-03-24T17:56:02.917Z,30.63
2018-03-24T17:58:30.977Z,28.70
2018-03-24T18:01:01.016Z,30.80
2018-03-24T18:03:27.378Z,32.53
2018-03-24T18:08:48.628Z,25.77
2018-03-24T18:11:15.509Z,30.97
2018-03-24T18:13:41.934Z,27.33
2018-03-24T18:16:13.363Z,30.10
2018-03-24T18:18:39.699Z,26.67
2018-03-24T18:21:06.112Z,27.60
2018-03-24T18:23:33.127Z,29.10
2018-03-24T18:25:59.426Z,29.77
2018-03-24T18:28:25.681Z,32.43
2018-03-24T18:30:51.955Z,31.13
2018-03-24T18:33:18.347Z,32.77
2018-03-24T18:35:44.664Z,27.67
2018-03-24T18:41:04.340Z,31.10
2018-03-24T18:43:30.717Z,33.23
2018-03-24T18:45:57.046Z,30.73
2018-03-24T18:48:23.328Z,32.40
2018-03-24T18:50:50.681Z,30.57
2018-03-24T18:53:17.634Z,28.43
2018-03-24T18:55:44.034Z,34.37
2018-03-24T18:58:10.298Z,33.47
2018-03-24T19:00:36.654Z,29.60
2018-03-24T19:03:02.991Z,29.10
2018-03-24T19:05:29.247Z,31.60
2018-03-24T19:07:55.538Z,33.50
2018-03-24T19:10:21.817Z,32.20
2018-03-24T19:15:43.145Z,35.70
2018-03-24T19:18:09.461Z,32.30
2018-03-24T19:20:35.746Z,37.60
2018-03-24T19:23:02.037Z,35.43
2018-03-24T19:25:28.349Z,33.50
2018-03-24T19:27:54.689Z,37.73
2018-03-24T19:30:21.285Z,35.57
2018-03-24T19:32:48.409Z,37.77
2018-03-24T19:35:14.892Z,42.60
2018-03-24T19:37:41.294Z,40.70
2018-03-24T19:40:07.571Z,37.23
2018-03-24T19:42:34.601Z,41.70
2018-03-24T19:45:00.880Z,34.00
2018-03-24T19:47:27.182Z,36.33
2018-03-24T19:49:53.486Z,34.40
2018-03-24T19:52:20.054Z,30.27
2018-03-24T19:54:46.869Z,28.07
2018-03-24T19:57:13.151Z,34.33
2018-03-24T19:59:40.301Z,31.53
2018-03-24T20:02:06.588Z,32.80
2018-03-24T20:04:32.846Z,29.63
2018-03-24T20:06:59.140Z,27.83
2018-03-24T20:09:25.444Z,31.80
2018-03-24T20:11:52.539Z,28.53
2018-03-24T20:14:18.886Z,30.20
2018-03-24T20:16:45.215Z,31.27
2018-03-24T20:19:11.504Z,30.03
2018-03-24T20:21:38.589Z,29.10
2018-03-24T20:24:04.864Z,28.87
2018-03-24T20:26:31.193Z,26.13
2018-03-24T20:28:57.504Z,36.20
2018-03-24T20:31:24.546Z,29.73
2018-03-24T20:33:50.961Z,29.97
2018-03-24T20:36:17.475Z,28.27
2018-03-24T20:38:43.865Z,30.57
2018-03-24T20:41:10.138Z,29.33
2018-03-24T20:43:37.166Z,32.20
2018-03-24T20:46:03.495Z,28.80
2018-03-24T20:48:29.840Z,30.17
2018-03-24T20:50:56.136Z,30.43
2018-03-24T20:53:23.141Z,30.53
2018-03-24T20:55:49.491Z,32.33
2018-03-24T20:58:15.983Z,27.93
2018-03-24T21:00:43.029Z,30.17
2018-03-24T21:03:10.039Z,29.73
2018-03-24T21:05:36.316Z,27.87
2018-03-24T21:08:02.616Z,31.90
2018-03-24T21:10:28.870Z,34.07
2018-03-24T21:12:55.198Z,33.57
2018-03-24T21:15:21.494Z,31.10
2018-03-24T21:17:48.102Z,36.20
2018-03-24T21:20:14.561Z,33.77
2018-03-24T21:22:40.856Z,30.13
2018-03-24T21:25:07.875Z,28.87
2018-03-24T21:27:34.168Z,28.17
2018-03-24T21:30:00.421Z,30.23
2018-03-24T21:32:26.723Z,29.87
2018-03-24T21:34:53.062Z,28.10
2018-03-24T21:37:19.380Z,31.17
2018-03-24T21:39:45.697Z,30.93
2018-03-24T21:42:12.039Z,28.13
2018-03-24T21:44:38.295Z,28.87
2018-03-24T21:47:04.834Z,29.60
2018-03-24T21:49:31.126Z,30.33
2018-03-24T21:51:58.104Z,29.83
2018-03-24T21:54:25.123Z,29.07
2018-03-24T21:56:51.405Z,29.23
2018-03-24T21:59:18.536Z,29.67
2018-03-24T22:01:44.852Z,30.80
2018-03-24T22:04:11.929Z,28.97
2018-03-24T22:06:38.219Z,31.93
2018-03-24T22:09:04.524Z,31.17
2018-03-24T22:11:30.940Z,28.67
2018-03-24T22:13:57.194Z,31.17
2018-03-24T22:16:23.457Z,29.87
2018-03-24T22:18:51.275Z,26.20
2018-03-24T22:21:18.120Z,28.50
2018-03-24T22:23:44.552Z,31.70
2018-03-24T22:26:10.898Z,29.10
2018-03-24T22:28:37.886Z,30.80
2018-03-24T22:31:04.159Z,28.97
2018-03-24T22:33:30.444Z,29.60
2018-03-24T22:35:57.414Z,31.63
2018-03-24T22:38:23.726Z,29.43
2018-03-24T22:40:50.025Z,30.20
2018-03-24T22:43:16.539Z,28.30
2018-03-24T22:45:43.551Z,29.17
2018-03-24T22:48:09.954Z,32.83
2018-03-24T22:50:36.259Z,25.67
2018-03-24T22:53:02.530Z,29.70
2018-03-24T22:55:29.517Z,30.93
2018-03-24T22:57:55.791Z,29.03
2018-03-24T23:00:22.874Z,31.10
2018-03-24T23:02:49.222Z,29.57
2018-03-24T23:05:16.289Z,33.73
2018-03-24T23:07:42.641Z,31.43
2018-03-24T23:10:09.655Z,29.80
2018-03-24T23:12:35.922Z,30.30
2018-03-24T23:15:02.225Z,34.20
2018-03-24T23:17:28.456Z,32.23
2018-03-24T23:19:54.705Z,30.87
2018-03-24T23:22:21.014Z,30.70
2018-03-24T23:24:48.179Z,31.83
2018-03-24T23:27:15.202Z,29.27
2018-03-24T23:29:41.547Z,31.77
2018-03-24T23:32:07.847Z,28.50
2018-03-24T23:34:34.095Z,31.93
2018-03-24T23:37:00.397Z,26.53
2018-03-24T23:39:26.770Z,30.63
2018-03-24T23:41:53.828Z,29.83
2018-03-24T23:44:20.123Z,32.40
2018-03-24T23:46:46.448Z,33.43
2018-03-24T23:49:12.802Z,33.30
2018-03-24T23:51:39.065Z,30.77
2018-03-24T23:54:06.109Z,28.37
2018-03-24T23:56:32.373Z,31.03
2018-03-24T23:58:59.416Z,30.43
